Time;durP1;ratioP1;P1;durP2;ratioP2;P2;SDS_P1;SDS_P2;PMS_P1;PMS_P2;Temp;Humidity;BMP_temperature;BMP_pressure;BME280_temperature;BME280_humidity;BME280_pressure;Samples;Min_cycle;Max_cycle;Signal;HPM_P1;HPM_P2
2023/07/18 00:00:18;;;;;;;3.92;2.05;;;;;;;;;;5108263;28;20031;-61
2023/07/18 00:02:45;;;;;;;7.38;2.42;;;;;;;;;;5108201;28;20027;-60
2023/07/18 00:05:12;;;;;;;4.43;2.03;;;;;;;;;;5111518;28;20022;-61
2023/07/18 00:07:42;;;;;;;2.28;1.42;;;;;;;;;;5113602;28;20082;-60
2023/07/18 00:10:09;;;;;;;10.57;2.72;;;;;;;;;;5112963;28;20039;-61
2023/07/18 00:12:37;;;;;;;3.05;1.45;;;;;;;;;;5113605;28;20027;-61
2023/07/18 00:15:07;;;;;;;8.43;2.83;;;;;;;;;;5113243;28;20089;-61
2023/07/18 00:17:34;;;;;;;3.47;1.60;;;;;;;;;;5109094;28;20092;-61
2023/07/18 00:20:01;;;;;;;4.37;2.73;;;;;;;;;;5107703;28;20031;-61
2023/07/18 00:22:28;;;;;;;7.80;1.83;;;;;;;;;;5107632;28;20474;-61
2023/07/18 00:24:55;;;;;;;17.50;2.60;;;;;;;;;;5107502;28;20024;-61
2023/07/18 00:27:22;;;;;;;3.27;1.83;;;;;;;;;;5111131;28;20023;-61
2023/07/18 00:29:50;;;;;;;4.30;2.10;;;;;;;;;;5113293;28;20023;-61
2023/07/18 00:32:17;;;;;;;3.80;1.70;;;;;;;;;;5112827;28;20027;-61
2023/07/18 00:34:44;;;;;;;4.00;1.90;;;;;;;;;;5111886;28;20043;-61
2023/07/18 00:37:11;;;;;;;2.97;1.53;;;;;;;;;;5109444;28;20118;-61
2023/07/18 00:39:38;;;;;;;12.43;2.13;;;;;;;;;;5108752;28;20378;-61
2023/07/18 00:42:05;;;;;;;3.73;1.43;;;;;;;;;;5105747;28;20110;-61
2023/07/18 00:44:32;;;;;;;4.33;2.10;;;;;;;;;;5104168;27;20503;-59
2023/07/18 00:47:03;;;;;;;6.70;2.40;;;;;;;;;;5105778;28;20077;-61
2023/07/18 00:49:30;;;;;;;6.13;2.43;;;;;;;;;;5106756;28;20012;-62
2023/07/18 00:51:57;;;;;;;5.53;2.13;;;;;;;;;;5111480;28;20032;-61
2023/07/18 00:54:24;;;;;;;11.63;2.80;;;;;;;;;;5111025;28;20027;-62
2023/07/18 00:56:51;;;;;;;6.17;1.87;;;;;;;;;;5110954;28;20083;-61
2023/07/18 00:59:19;;;;;;;3.43;1.43;;;;;;;;;;5110734;28;20015;-60
2023/07/18 01:01:46;;;;;;;4.90;1.53;;;;;;;;;;5107856;28;20011;-61
2023/07/18 01:04:13;;;;;;;3.73;1.60;;;;;;;;;;5106030;28;20533;-61
2023/07/18 01:06:43;;;;;;;4.20;1.40;;;;;;;;;;5106028;28;20374;-61
2023/07/18 01:09:11;;;;;;;6.67;2.07;;;;;;;;;;5102666;28;20020;-61
2023/07/18 01:11:38;;;;;;;2.73;1.60;;;;;;;;;;5108079;28;20027;-61
2023/07/18 01:14:05;;;;;;;2.57;1.33;;;;;;;;;;5110737;28;20028;-61
2023/07/18 01:16:32;;;;;;;4.87;1.87;;;;;;;;;;5110593;28;20020;-62
2023/07/18 01:19:02;;;;;;;11.63;1.80;;;;;;;;;;5110659;28;20042;-61
2023/07/18 01:21:29;;;;;;;4.93;1.40;;;;;;;;;;5110938;28;20469;-62
2023/07/18 01:23:55;;;;;;;5.87;1.43;;;;;;;;;;5108078;28;20018;-62
2023/07/18 01:26:23;;;;;;;19.37;2.63;;;;;;;;;;5106814;28;20040;-62
2023/07/18 01:28:50;;;;;;;4.97;2.10;;;;;;;;;;5106688;28;20462;-62
2023/07/18 01:31:17;;;;;;;7.43;2.23;;;;;;;;;;5107100;28;20470;-63
2023/07/18 01:33:44;;;;;;;16.23;1.50;;;;;;;;;;5108625;28;20106;-62
2023/07/18 01:36:11;;;;;;;4.47;1.50;;;;;;;;;;5111600;28;20040;-62
2023/07/18 01:38:37;;;;;;;5.30;2.23;;;;;;;;;;5112521;28;20054;-62
2023/07/18 01:41:07;;;;;;;9.03;2.07;;;;;;;;;;5112506;28;20023;-62
2023/07/18 01:43:36;;;;;;;7.67;1.57;;;;;;;;;;5112223;28;20076;-62
2023/07/18 01:46:05;;;;;;;23.50;2.00;;;;;;;;;;5110188;28;20024;-61
2023/07/18 01:48:32;;;;;;;5.73;2.37;;;;;;;;;;5106464;28;20076;-62
2023/07/18 01:51:22;;;;;;;27.37;1.47;;;;;;;;;;5106576;28;20023;-62
2023/07/18 01:53:49;;;;;;;2.60;1.50;;;;;;;;;;5107109;28;20104;-61
2023/07/18 01:56:15;;;;;;;20.57;2.70;;;;;;;;;;5112092;28;20062;-62
2023/07/18 01:58:42;;;;;;;6.83;1.80;;;;;;;;;;5115989;28;20099;-62
2023/07/18 02:01:09;;;;;;;2.97;1.73;;;;;;;;;;5115745;28;20034;-61
2023/07/18 02:03:37;;;;;;;8.77;1.90;;;;;;;;;;5115850;28;20445;-60
2023/07/18 02:06:04;;;;;;;3.67;1.93;;;;;;;;;;5116005;28;20474;-61
2023/07/18 02:08:31;;;;;;;2.20;1.53;;;;;;;;;;5113083;28;20091;-61
2023/07/18 02:10:58;;;;;;;2.33;1.47;;;;;;;;;;5111001;28;20024;-61
2023/07/18 02:13:24;;;;;;;4.90;1.70;;;;;;;;;;5110439;28;20111;-61
2023/07/18 02:15:51;;;;;;;8.10;1.93;;;;;;;;;;5110465;28;20047;-62
2023/07/18 02:18:18;;;;;;;2.80;1.27;;;;;;;;;;5112021;28;20031;-61
2023/07/18 02:20:48;;;;;;;10.37;1.67;;;;;;;;;;5115679;28;20031;-62
2023/07/18 02:23:15;;;;;;;5.97;2.00;;;;;;;;;;5115770;28;20136;-61
2023/07/18 02:25:41;;;;;;;8.80;1.50;;;;;;;;;;5115482;28;20024;-61
2023/07/18 02:28:10;;;;;;;2.80;1.73;;;;;;;;;;5115752;28;20489;-61
2023/07/18 02:30:38;;;;;;;3.20;1.43;;;;;;;;;;5113208;28;20488;-62
2023/07/18 02:33:07;;;;;;;4.50;1.63;;;;;;;;;;5110500;28;20084;-62
2023/07/18 02:35:33;;;;;;;9.23;2.30;;;;;;;;;;5110104;28;20036;-61
2023/07/18 02:38:00;;;;;;;5.40;1.90;;;;;;;;;;5110050;28;20561;-62
2023/07/18 02:40:27;;;;;;;4.77;1.30;;;;;;;;;;5111632;28;20054;-61
2023/07/18 02:42:54;;;;;;;7.37;1.67;;;;;;;;;;5115071;28;20024;-61
2023/07/18 02:45:21;;;;;;;2.90;1.27;;;;;;;;;;5114595;28;20026;-61
2023/07/18 02:47:47;;;;;;;8.53;1.97;;;;;;;;;;5115217;28;20023;-61
2023/07/18 02:50:14;;;;;;;6.97;2.03;;;;;;;;;;5115106;28;20114;-62
2023/07/18 02:52:41;;;;;;;2.30;1.53;;;;;;;;;;5113331;28;20019;-62
2023/07/18 02:55:08;;;;;;;3.47;1.63;;;;;;;;;;5109561;28;20444;-62
2023/07/18 02:57:35;;;;;;;10.30;2.23;;;;;;;;;;5109958;28;20390;-62
2023/07/18 03:00:03;;;;;;;2.97;1.70;;;;;;;;;;5109853;28;20020;-62
2023/07/18 03:02:31;;;;;;;5.53;2.27;;;;;;;;;;5109798;28;20446;-62
2023/07/18 03:04:58;;;;;;;2.87;1.87;;;;;;;;;;5114913;28;20470;-62
2023/07/18 03:07:24;;;;;;;3.93;1.50;;;;;;;;;;5113348;28;20078;-62
2023/07/18 03:09:51;;;;;;;5.73;1.60;;;;;;;;;;5115117;28;20020;-62
2023/07/18 03:12:21;;;;;;;6.80;2.00;;;;;;;;;;5114488;28;20031;-62
2023/07/18 03:14:47;;;;;;;6.27;2.07;;;;;;;;;;5113660;28;20046;-62
2023/07/18 03:17:14;;;;;;;2.50;1.60;;;;;;;;;;5109282;28;20055;-62
2023/07/18 03:19:41;;;;;;;2.03;1.27;;;;;;;;;;5109759;28;20503;-62
2023/07/18 03:22:08;;;;;;;3.93;1.80;;;;;;;;;;5109637;28;20083;-62
2023/07/18 03:24:35;;;;;;;4.23;1.97;;;;;;;;;;5109147;28;20060;-62
2023/07/18 03:27:03;;;;;;;5.90;2.00;;;;;;;;;;5114132;28;20058;-62
2023/07/18 03:29:29;;;;;;;4.33;1.93;;;;;;;;;;5113791;28;20053;-62
2023/07/18 03:31:59;;;;;;;4.47;2.10;;;;;;;;;;5113082;28;20303;-62
2023/07/18 03:34:26;;;;;;;6.87;2.27;;;;;;;;;;5112981;28;20040;-62
2023/07/18 03:36:52;;;;;;;2.20;1.67;;;;;;;;;;5113193;28;20502;-62
2023/07/18 03:39:19;;;;;;;6.50;2.23;;;;;;;;;;5108387;28;20493;-62
2023/07/18 03:41:46;;;;;;;15.00;2.80;;;;;;;;;;5108673;28;20034;-62
2023/07/18 03:44:13;;;;;;;4.90;2.37;;;;;;;;;;5108833;28;20015;-62
2023/07/18 03:46:39;;;;;;;6.33;1.60;;;;;;;;;;5109091;28;20166;-62
2023/07/18 03:49:06;;;;;;;8.60;1.57;;;;;;;;;;5113355;28;20070;-62
2023/07/18 03:51:33;;;;;;;9.33;2.07;;;;;;;;;;5113314;28;20039;-62
2023/07/18 03:54:01;;;;;;;7.40;1.60;;;;;;;;;;5112985;28;20031;-62
2023/07/18 03:56:30;;;;;;;5.20;2.07;;;;;;;;;;5113436;28;20080;-62
2023/07/18 03:58:57;;;;;;;5.57;1.90;;;;;;;;;;5112722;28;20043;-62
2023/07/18 04:01:24;;;;;;;6.27;2.13;;;;;;;;;;5108546;28;20051;-62
2023/07/18 04:03:51;;;;;;;8.70;1.27;;;;;;;;;;5108255;28;20783;-62
2023/07/18 04:06:18;;;;;;;37.27;3.30;;;;;;;;;;5107388;28;20031;-62
2023/07/18 04:08:44;;;;;;;12.40;2.63;;;;;;;;;;5107590;28;20393;-62
2023/07/18 04:11:11;;;;;;;4.23;1.90;;;;;;;;;;5112703;28;20048;-62
2023/07/18 04:13:38;;;;;;;2.83;1.77;;;;;;;;;;5112605;28;20378;-62
2023/07/18 04:16:05;;;;;;;4.50;2.30;;;;;;;;;;5111984;28;20035;-62
2023/07/18 04:18:32;;;;;;;4.53;2.23;;;;;;;;;;5112967;28;20103;-62
2023/07/18 04:21:00;;;;;;;4.00;2.37;;;;;;;;;;5112676;28;20026;-62
2023/07/18 04:23:27;;;;;;;6.77;2.63;;;;;;;;;;5108235;28;20034;-62
2023/07/18 04:25:58;;;;;;;11.30;2.70;;;;;;;;;;5108325;28;20023;-63
2023/07/18 04:28:27;;;;;;;5.67;1.93;;;;;;;;;;5108055;28;20104;-62
2023/07/18 04:30:54;;;;;;;2.77;1.77;;;;;;;;;;5107686;28;20024;-62
2023/07/18 04:33:20;;;;;;;10.67;2.17;;;;;;;;;;5111500;28;20028;-62
2023/07/18 04:35:47;;;;;;;10.17;2.17;;;;;;;;;;5112781;28;20032;-62
2023/07/18 04:38:14;;;;;;;5.53;2.10;;;;;;;;;;5113067;28;20107;-62
2023/07/18 04:40:41;;;;;;;2.40;1.60;;;;;;;;;;5112870;28;20049;-61
2023/07/18 04:43:08;;;;;;;1.90;1.17;;;;;;;;;;5112893;28;20059;-62
2023/07/18 04:45:41;;;;;;;4.63;2.20;;;;;;;;;;5108212;28;20020;-62
2023/07/18 04:48:09;;;;;;;2.93;1.90;;;;;;;;;;5106910;28;20019;-62
2023/07/18 04:50:36;;;;;;;3.30;1.67;;;;;;;;;;5105758;28;20019;-62
2023/07/18 04:53:03;;;;;;;11.50;3.63;;;;;;;;;;5106299;28;20031;-62
2023/07/18 04:55:30;;;;;;;5.03;2.80;;;;;;;;;;5110687;28;20085;-62
2023/07/18 04:57:57;;;;;;;7.13;3.73;;;;;;;;;;5111924;28;20024;-62
2023/07/18 05:00:23;;;;;;;4.80;2.43;;;;;;;;;;5111831;28;20031;-62
2023/07/18 05:02:50;;;;;;;4.17;2.53;;;;;;;;;;5111849;28;20445;-62
2023/07/18 05:05:18;;;;;;;5.53;2.33;;;;;;;;;;5111645;28;20538;-62
2023/07/18 05:07:44;;;;;;;4.67;1.73;;;;;;;;;;5107730;28;20127;-62
2023/07/18 05:10:11;;;;;;;5.20;2.83;;;;;;;;;;5106606;28;20039;-62
2023/07/18 05:12:38;;;;;;;6.63;2.87;;;;;;;;;;5106647;28;20035;-62
2023/07/18 05:15:05;;;;;;;5.53;2.50;;;;;;;;;;5106756;28;20116;-62
2023/07/18 05:17:32;;;;;;;9.87;3.90;;;;;;;;;;5110351;28;20031;-62
2023/07/18 05:19:59;;;;;;;4.90;2.90;;;;;;;;;;5112456;28;20055;-62
2023/07/18 05:22:26;;;;;;;8.83;3.10;;;;;;;;;;5111445;28;20028;-62
2023/07/18 05:24:53;;;;;;;11.33;3.40;;;;;;;;;;5112028;28;20099;-62
2023/07/18 05:27:21;;;;;;;10.83;3.10;;;;;;;;;;5112819;28;20094;-61
2023/07/18 05:29:48;;;;;;;6.23;2.97;;;;;;;;;;5108939;28;20031;-62
2023/07/18 05:32:15;;;;;;;9.53;2.63;;;;;;;;;;5111446;28;20035;-62
2023/07/18 05:34:42;;;;;;;28.10;3.63;;;;;;;;;;5110679;28;20028;-62
2023/07/18 05:37:10;;;;;;;4.10;2.87;;;;;;;;;;5111695;28;20066;-61
2023/07/18 05:39:36;;;;;;;9.87;2.93;;;;;;;;;;5113614;28;20023;-62
2023/07/18 05:42:04;;;;;;;12.60;3.93;;;;;;;;;;5116357;28;20070;-62
2023/07/18 05:44:31;;;;;;;10.17;3.07;;;;;;;;;;5116226;28;20023;-62
2023/07/18 05:46:58;;;;;;;6.70;2.43;;;;;;;;;;5116602;28;20066;-61
2023/07/18 05:49:25;;;;;;;8.50;2.73;;;;;;;;;;5115002;28;20482;-62
2023/07/18 05:51:52;;;;;;;6.33;2.60;;;;;;;;;;5111894;28;20118;-62
2023/07/18 05:54:19;;;;;;;9.57;3.57;;;;;;;;;;5108701;28;20414;-62
2023/07/18 05:56:46;;;;;;;9.33;2.70;;;;;;;;;;5109499;28;20612;-62
2023/07/18 05:59:13;;;;;;;6.67;2.83;;;;;;;;;;5109383;28;20102;-62
2023/07/18 06:01:39;;;;;;;14.50;3.00;;;;;;;;;;5111677;28;20026;-62
2023/07/18 06:04:06;;;;;;;3.40;2.07;;;;;;;;;;5114011;28;20032;-61
2023/07/18 06:06:34;;;;;;;8.53;2.90;;;;;;;;;;5114409;28;20098;-61
2023/07/18 06:09:01;;;;;;;4.83;1.50;;;;;;;;;;5113802;28;20028;-61
2023/07/18 06:11:28;;;;;;;10.90;3.30;;;;;;;;;;5114305;28;20012;-62
2023/07/18 06:13:54;;;;;;;11.90;3.30;;;;;;;;;;5111871;28;20015;-61
2023/07/18 06:16:21;;;;;;;11.57;2.73;;;;;;;;;;5109158;28;20035;-62
2023/07/18 06:18:48;;;;;;;6.13;3.03;;;;;;;;;;5109089;28;20035;-62
2023/07/18 06:21:15;;;;;;;24.27;2.90;;;;;;;;;;5109147;28;20455;-62
2023/07/18 06:23:42;;;;;;;13.00;3.40;;;;;;;;;;5111284;28;20058;-61
2023/07/18 06:26:09;;;;;;;5.13;3.40;;;;;;;;;;5114337;28;20119;-61
2023/07/18 06:28:36;;;;;;;9.67;3.33;;;;;;;;;;5115769;28;20390;-61
2023/07/18 06:31:02;;;;;;;4.17;2.33;;;;;;;;;;5115521;28;20539;-61
2023/07/18 06:33:29;;;;;;;7.77;2.20;;;;;;;;;;5114789;28;20027;-61
2023/07/18 06:35:56;;;;;;;11.30;3.50;;;;;;;;;;5112468;28;20036;-61
2023/07/18 06:38:24;;;;;;;6.13;2.73;;;;;;;;;;5108842;28;20031;-61
2023/07/18 06:40:51;;;;;;;8.03;2.77;;;;;;;;;;5109642;28;20047;-61
2023/07/18 06:43:18;;;;;;;18.13;3.47;;;;;;;;;;5109541;28;20027;-62
2023/07/18 06:45:45;;;;;;;14.33;4.13;;;;;;;;;;5110814;28;20023;-61
2023/07/18 06:48:12;;;;;;;6.43;2.70;;;;;;;;;;5115177;28;20103;-61
2023/07/18 06:50:46;;;;;;;2.70;2.10;;;;;;;;;;5115096;28;20040;-61
2023/07/18 06:53:13;;;;;;;7.47;2.60;;;;;;;;;;5115332;28;20047;-61
2023/07/18 06:55:41;;;;;;;5.63;3.37;;;;;;;;;;5115012;28;20090;-61
2023/07/18 06:58:11;;;;;;;11.30;3.50;;;;;;;;;;5112974;28;20020;-61
2023/07/18 07:00:39;;;;;;;21.63;3.13;;;;;;;;;;5109479;28;20051;-61
2023/07/18 07:03:07;;;;;;;6.67;3.30;;;;;;;;;;5109595;28;20523;-61
2023/07/18 07:05:38;;;;;;;23.40;4.17;;;;;;;;;;5109562;28;20032;-61
2023/07/18 07:08:08;;;;;;;3.83;2.20;;;;;;;;;;5110524;28;20035;-61
2023/07/18 07:10:38;;;;;;;15.77;3.73;;;;;;;;;;5114451;28;20497;-61
2023/07/18 07:13:05;;;;;;;7.23;2.43;;;;;;;;;;5114679;28;20016;-61
2023/07/18 07:15:35;;;;;;;6.00;2.80;;;;;;;;;;5114619;28;20043;-61
2023/07/18 07:18:03;;;;;;;13.17;3.43;;;;;;;;;;5114926;28;20024;-61
2023/07/18 07:20:33;;;;;;;7.73;3.83;;;;;;;;;;5112873;28;20445;-61
2023/07/18 07:23:00;;;;;;;4.37;2.73;;;;;;;;;;5109138;28;20490;-61
2023/07/18 07:25:27;;;;;;;10.83;3.47;;;;;;;;;;5108918;28;20035;-61
2023/07/18 07:27:55;;;;;;;2.83;1.97;;;;;;;;;;5108877;28;20024;-61
2023/07/18 07:30:21;;;;;;;5.97;2.97;;;;;;;;;;5109985;28;20027;-62
2023/07/18 07:32:52;;;;;;;19.97;3.90;;;;;;;;;;5114519;28;20666;-61
2023/07/18 07:35:20;;;;;;;5.93;2.47;;;;;;;;;;5114442;28;20073;-61
2023/07/18 07:37:47;;;;;;;5.40;2.27;;;;;;;;;;5114401;28;20020;-61
2023/07/18 07:40:15;;;;;;;2.90;1.80;;;;;;;;;;5114233;28;20103;-61
2023/07/18 07:42:43;;;;;;;4.63;2.83;;;;;;;;;;5112403;28;20015;-62
2023/07/18 07:45:10;;;;;;;6.87;2.97;;;;;;;;;;5108767;28;20752;-61
2023/07/18 07:47:37;;;;;;;8.90;2.13;;;;;;;;;;5108478;28;20016;-61
2023/07/18 07:50:04;;;;;;;13.73;3.37;;;;;;;;;;5108561;28;20123;-62
2023/07/18 07:52:31;;;;;;;14.17;3.03;;;;;;;;;;5109208;28;20024;-61
2023/07/18 07:54:58;;;;;;;4.80;2.63;;;;;;;;;;5113728;28;20055;-61
2023/07/18 07:57:25;;;;;;;7.23;3.20;;;;;;;;;;5113664;28;20055;-61
2023/07/18 07:59:53;;;;;;;10.83;4.17;;;;;;;;;;5113924;28;20071;-61
2023/07/18 08:02:19;;;;;;;17.53;3.27;;;;;;;;;;5113884;28;20023;-61
2023/07/18 08:04:47;;;;;;;6.57;3.20;;;;;;;;;;5112313;28;20047;-61
2023/07/18 08:07:14;;;;;;;6.57;3.37;;;;;;;;;;5108334;28;20020;-61
2023/07/18 08:09:41;;;;;;;13.03;3.70;;;;;;;;;;5108377;28;20466;-61
2023/07/18 08:12:09;;;;;;;8.43;5.50;;;;;;;;;;5108138;28;20019;-61
2023/07/18 08:14:37;;;;;;;12.53;6.00;;;;;;;;;;5108420;28;20042;-61
2023/07/18 08:17:05;;;;;;;5.93;3.10;;;;;;;;;;5113440;28;20031;-61
2023/07/18 08:19:33;;;;;;;9.07;2.97;;;;;;;;;;5113546;28;20024;-62
2023/07/18 08:22:01;;;;;;;7.83;3.30;;;;;;;;;;5113284;28;20035;-61
2023/07/18 08:24:27;;;;;;;7.23;3.10;;;;;;;;;;5113412;28;20102;-61
2023/07/18 08:26:54;;;;;;;4.10;2.60;;;;;;;;;;5112388;28;20028;-61
2023/07/18 08:29:21;;;;;;;9.30;3.23;;;;;;;;;;5107290;28;20020;-61
2023/07/18 08:31:48;;;;;;;10.47;2.57;;;;;;;;;;5107812;28;20026;-61
2023/07/18 08:34:16;;;;;;;7.57;3.07;;;;;;;;;;5107723;28;20051;-61
2023/07/18 08:36:43;;;;;;;5.37;3.10;;;;;;;;;;5107667;28;20036;-61
2023/07/18 08:39:09;;;;;;;13.07;3.60;;;;;;;;;;5113012;28;20470;-61
2023/07/18 08:41:36;;;;;;;6.80;3.10;;;;;;;;;;5113255;28;20077;-61
2023/07/18 08:44:03;;;;;;;12.90;2.97;;;;;;;;;;5113149;28;20081;-61
2023/07/18 08:46:30;;;;;;;10.50;2.70;;;;;;;;;;5112843;28;20012;-61
2023/07/18 08:48:57;;;;;;;21.47;3.33;;;;;;;;;;5112600;28;20057;-61
2023/07/18 08:51:24;;;;;;;8.03;3.37;;;;;;;;;;5107449;28;20593;-61
2023/07/18 08:53:51;;;;;;;3.97;2.23;;;;;;;;;;5107560;28;20027;-61
2023/07/18 08:56:17;;;;;;;17.10;2.70;;;;;;;;;;5107259;28;20084;-61
2023/07/18 08:58:44;;;;;;;6.10;3.23;;;;;;;;;;5107367;28;20031;-61
2023/07/18 09:01:11;;;;;;;9.53;2.70;;;;;;;;;;5112530;28;20015;-61
2023/07/18 09:03:37;;;;;;;5.27;3.10;;;;;;;;;;5112950;28;20031;-61
2023/07/18 09:06:07;;;;;;;9.33;3.23;;;;;;;;;;5111780;28;20361;-61
2023/07/18 09:08:43;;;;;;;5.17;2.93;;;;;;;;;;5112828;28;20110;-61
2023/07/18 09:11:14;;;;;;;3.33;2.40;;;;;;;;;;5112161;28;20030;-61
2023/07/18 09:13:42;;;;;;;8.80;4.00;;;;;;;;;;5106789;28;20036;-61
2023/07/18 09:16:16;;;;;;;7.93;3.20;;;;;;;;;;5107031;28;20351;-61
2023/07/18 09:18:54;;;;;;;6.80;3.50;;;;;;;;;;5107222;28;20019;-61
2023/07/18 09:21:22;;;;;;;7.87;2.77;;;;;;;;;;5107660;28;20012;-61
2023/07/18 09:23:50;;;;;;;10.37;3.80;;;;;;;;;;5112536;28;20016;-61
2023/07/18 09:26:22;;;;;;;12.03;3.30;;;;;;;;;;5112309;28;20027;-61
2023/07/18 09:28:51;;;;;;;8.37;3.70;;;;;;;;;;5112667;28;20023;-61
2023/07/18 09:31:19;;;;;;;9.70;3.60;;;;;;;;;;5112482;28;20024;-61
2023/07/18 09:33:49;;;;;;;18.13;4.10;;;;;;;;;;5111158;28;20077;-61
2023/07/18 09:36:24;;;;;;;8.70;3.37;;;;;;;;;;5106923;28;20032;-60
2023/07/18 09:38:51;;;;;;;4.13;2.78;;;;;;;;;;5106653;28;20043;-61
2023/07/18 09:41:19;;;;;;;6.70;2.60;;;;;;;;;;5106979;28;20019;-61
2023/07/18 09:43:46;;;;;;;15.77;3.70;;;;;;;;;;5107957;28;20020;-61
2023/07/18 09:46:13;;;;;;;6.27;2.83;;;;;;;;;;5112421;28;20053;-61
2023/07/18 09:48:45;;;;;;;9.33;2.97;;;;;;;;;;5112221;28;20393;-61
2023/07/18 09:51:16;;;;;;;4.17;2.10;;;;;;;;;;5112281;28;20054;-60
2023/07/18 09:53:46;;;;;;;5.13;2.47;;;;;;;;;;5111965;28;20031;-61
2023/07/18 09:56:17;;;;;;;9.60;3.10;;;;;;;;;;5110460;28;20440;-61
2023/07/18 09:58:44;;;;;;;7.90;2.67;;;;;;;;;;5088757;28;20474;-61
2023/07/18 10:01:12;;;;;;;13.67;3.47;;;;;;;;;;5106748;28;20036;-61
2023/07/18 10:03:39;;;;;;;3.60;1.87;;;;;;;;;;5106703;28;20020;-61
2023/07/18 10:06:10;;;;;;;19.30;5.23;;;;;;;;;;5107984;28;20016;-61
2023/07/18 10:08:39;;;;;;;6.93;4.00;;;;;;;;;;5111701;28;20034;-60
2023/07/18 10:11:08;;;;;;;2.83;2.03;;;;;;;;;;5112291;28;20099;-61
2023/07/18 10:13:42;;;;;;;4.63;2.97;;;;;;;;;;5112228;28;20030;-60
2023/07/18 10:16:15;;;;;;;5.17;2.90;;;;;;;;;;5112874;28;20030;-61
2023/07/18 10:18:45;;;;;;;6.20;2.50;;;;;;;;;;5113811;28;20260;-61
2023/07/18 10:21:28;;;;;;;6.93;2.87;;;;;;;;;;5110508;28;20030;-61
2023/07/18 10:23:55;;;;;;;8.90;3.00;;;;;;;;;;5110188;28;20055;-61
2023/07/18 10:26:34;;;;;;;13.60;2.90;;;;;;;;;;5110511;28;20049;-61
2023/07/18 10:29:02;;;;;;;16.03;2.77;;;;;;;;;;5112321;28;20024;-60
2023/07/18 10:31:29;;;;;;;29.13;3.73;;;;;;;;;;5115758;28;20465;-61
2023/07/18 10:34:09;;;;;;;6.63;3.30;;;;;;;;;;5115816;28;20020;-60
2023/07/18 10:36:37;;;;;;;5.00;3.27;;;;;;;;;;5115550;28;20027;-60
2023/07/18 10:39:12;;;;;;;8.63;3.57;;;;;;;;;;5115282;28;20024;-61
2023/07/18 10:41:47;;;;;;;5.38;2.28;;;;;;;;;;5111969;28;20401;-61
2023/07/18 10:44:14;;;;;;;4.70;1.97;;;;;;;;;;5109987;28;20030;-61
2023/07/18 10:46:41;;;;;;;16.27;3.13;;;;;;;;;;5109770;28;20055;-61
2023/07/18 10:49:08;;;;;;;8.10;2.77;;;;;;;;;;5109820;28;20024;-61
2023/07/18 10:51:35;;;;;;;7.13;2.70;;;;;;;;;;5112644;28;20024;-61
2023/07/18 10:54:02;;;;;;;16.63;3.40;;;;;;;;;;5114578;28;20015;-61
2023/07/18 10:56:29;;;;;;;3.80;2.30;;;;;;;;;;5115438;28;20374;-61
2023/07/18 10:58:56;;;;;;;6.73;3.27;;;;;;;;;;5115219;28;20176;-61
2023/07/18 11:01:27;;;;;;;8.70;2.93;;;;;;;;;;5114888;28;20035;-60
2023/07/18 11:03:54;;;;;;;14.30;3.17;;;;;;;;;;5111740;28;20110;-61
2023/07/18 11:06:21;;;;;;;4.93;3.07;;;;;;;;;;5109451;28;20020;-60
2023/07/18 11:08:48;;;;;;;8.27;3.67;;;;;;;;;;5109478;28;20024;-61
2023/07/18 11:11:18;;;;;;;7.57;3.33;;;;;;;;;;5109618;28;20019;-61
2023/07/18 11:13:45;;;;;;;6.17;2.50;;;;;;;;;;5111991;28;20024;-61
2023/07/18 11:16:12;;;;;;;25.73;3.67;;;;;;;;;;5114637;28;20037;-61
2023/07/18 11:18:41;;;;;;;7.33;2.67;;;;;;;;;;5114745;28;20016;-61
2023/07/18 11:21:09;;;;;;;5.57;2.23;;;;;;;;;;5114997;28;20434;-61
2023/07/18 11:23:36;;;;;;;5.80;2.83;;;;;;;;;;5114760;28;20089;-60
2023/07/18 11:26:12;;;;;;;7.17;2.97;;;;;;;;;;5110984;28;20023;-61
2023/07/18 11:28:39;;;;;;;4.60;3.17;;;;;;;;;;5107859;28;20028;-60
2023/07/18 11:31:06;;;;;;;7.40;3.90;;;;;;;;;;5108905;28;20092;-60
2023/07/18 11:33:33;;;;;;;18.13;3.43;;;;;;;;;;5108958;28;20048;-61
2023/07/18 11:36:00;;;;;;;5.77;3.17;;;;;;;;;;5111741;28;20081;-61
2023/07/18 11:38:30;;;;;;;25.93;3.53;;;;;;;;;;5114045;28;20027;-60
2023/07/18 11:40:59;;;;;;;6.50;3.20;;;;;;;;;;5114474;28;20030;-61
2023/07/18 11:43:30;;;;;;;10.97;3.30;;;;;;;;;;5114204;28;20034;-61
2023/07/18 11:45:57;;;;;;;4.87;2.60;;;;;;;;;;5114491;28;20028;-60
2023/07/18 11:48:25;;;;;;;5.77;2.73;;;;;;;;;;5110589;28;20034;-61
2023/07/18 11:50:53;;;;;;;6.30;3.53;;;;;;;;;;5108527;28;20035;-60
2023/07/18 11:53:29;;;;;;;8.97;3.20;;;;;;;;;;5108122;28;20448;-60
2023/07/18 11:55:55;;;;;;;11.77;2.87;;;;;;;;;;5108448;28;20028;-60
2023/07/18 11:58:24;;;;;;;13.93;3.60;;;;;;;;;;5111440;28;20027;-61
2023/07/18 12:00:51;;;;;;;4.27;2.20;;;;;;;;;;5113948;28;20423;-60
2023/07/18 12:03:17;;;;;;;6.80;3.00;;;;;;;;;;5113837;28;20099;-60
2023/07/18 12:05:44;;;;;;;7.87;3.20;;;;;;;;;;5113519;28;20038;-60
2023/07/18 12:08:13;;;;;;;8.53;3.83;;;;;;;;;;5113603;28;20038;-60
2023/07/18 12:10:40;;;;;;;6.97;3.13;;;;;;;;;;5110273;28;20045;-60
2023/07/18 12:13:07;;;;;;;13.17;3.47;;;;;;;;;;5108322;28;20639;-60
2023/07/18 12:15:33;;;;;;;7.53;2.97;;;;;;;;;;5108027;28;20031;-60
2023/07/18 12:18:00;;;;;;;8.93;3.13;;;;;;;;;;5108200;28;20062;-60
2023/07/18 12:20:27;;;;;;;13.53;3.83;;;;;;;;;;5110800;28;20093;-61
2023/07/18 12:22:54;;;;;;;5.83;2.87;;;;;;;;;;5112977;28;20094;-61
2023/07/18 12:25:21;;;;;;;18.60;3.37;;;;;;;;;;5113494;28;20020;-60
2023/07/18 12:27:48;;;;;;;8.97;3.73;;;;;;;;;;5113137;28;20083;-60
2023/07/18 12:30:15;;;;;;;4.63;2.73;;;;;;;;;;5113511;28;20343;-61
2023/07/18 12:32:42;;;;;;;20.07;4.00;;;;;;;;;;5110347;28;20034;-61
2023/07/18 12:35:09;;;;;;;17.27;3.83;;;;;;;;;;5107798;28;20055;-60
2023/07/18 12:37:36;;;;;;;5.63;2.83;;;;;;;;;;5107415;28;20024;-60
2023/07/18 12:40:03;;;;;;;15.40;4.57;;;;;;;;;;5107355;28;20078;-61
2023/07/18 12:42:29;;;;;;;7.47;3.73;;;;;;;;;;5109991;28;20553;-60
2023/07/18 12:44:56;;;;;;;11.93;4.70;;;;;;;;;;5112953;28;20034;-61
2023/07/18 12:47:23;;;;;;;6.53;3.70;;;;;;;;;;5113179;28;20016;-61
2023/07/18 12:49:50;;;;;;;13.10;3.90;;;;;;;;;;5113049;28;20115;-58
2023/07/18 12:52:16;;;;;;;8.00;3.53;;;;;;;;;;5112929;28;20031;-59
2023/07/18 12:54:43;;;;;;;9.60;3.70;;;;;;;;;;5109746;28;20034;-58
2023/07/18 12:57:10;;;;;;;5.97;3.67;;;;;;;;;;5107379;28;20023;-59
2023/07/18 12:59:37;;;;;;;11.50;4.07;;;;;;;;;;5107118;28;20024;-59
2023/07/18 13:02:05;;;;;;;10.80;2.77;;;;;;;;;;5107124;28;20027;-58
2023/07/18 13:04:31;;;;;;;8.27;3.63;;;;;;;;;;5109120;28;20012;-58
2023/07/18 13:06:58;;;;;;;4.37;3.13;;;;;;;;;;5112873;28;20019;-58
2023/07/18 13:09:25;;;;;;;9.50;4.43;;;;;;;;;;5112636;28;20061;-58
2023/07/18 13:11:52;;;;;;;15.63;5.10;;;;;;;;;;5112350;28;20020;-58
2023/07/18 13:14:20;;;;;;;6.23;3.80;;;;;;;;;;5112435;28;20042;-59
2023/07/18 13:16:47;;;;;;;5.50;2.93;;;;;;;;;;5110656;28;20030;-58
2023/07/18 13:19:14;;;;;;;25.23;3.13;;;;;;;;;;5107239;28;20011;-59
2023/07/18 13:21:41;;;;;;;3.83;2.70;;;;;;;;;;5105768;28;20019;-59
2023/07/18 13:24:08;;;;;;;13.40;4.47;;;;;;;;;;5106819;28;20031;-59
2023/07/18 13:26:35;;;;;;;27.43;3.33;;;;;;;;;;5107893;28;20043;-59
2023/07/18 13:29:02;;;;;;;12.97;4.03;;;;;;;;;;5112147;28;20019;-58
2023/07/18 13:31:29;;;;;;;10.73;4.23;;;;;;;;;;5112342;28;20031;-59
2023/07/18 13:33:56;;;;;;;10.97;3.17;;;;;;;;;;5112353;28;20394;-59
2023/07/18 13:36:23;;;;;;;7.60;3.00;;;;;;;;;;5112463;28;20039;-58
2023/07/18 13:38:50;;;;;;;4.30;2.70;;;;;;;;;;5110439;28;20103;-59
2023/07/18 13:41:16;;;;;;;18.47;3.73;;;;;;;;;;5105588;28;20032;-59
2023/07/18 13:43:43;;;;;;;7.57;3.43;;;;;;;;;;5106369;28;20035;-58
2023/07/18 13:46:10;;;;;;;9.03;2.97;;;;;;;;;;5106972;28;20393;-59
2023/07/18 13:48:37;;;;;;;6.93;3.13;;;;;;;;;;5107647;28;20482;-58
2023/07/18 13:51:04;;;;;;;4.60;2.70;;;;;;;;;;5112658;28;20074;-59
2023/07/18 13:53:31;;;;;;;19.47;4.07;;;;;;;;;;5116590;28;20023;-58
2023/07/18 13:55:58;;;;;;;5.10;2.83;;;;;;;;;;5116191;28;20031;-59
2023/07/18 13:58:24;;;;;;;13.93;3.27;;;;;;;;;;5115840;28;20563;-59
2023/07/18 14:00:52;;;;;;;22.10;3.70;;;;;;;;;;5115045;28;20035;-59
2023/07/18 14:03:19;;;;;;;4.27;2.33;;;;;;;;;;5109225;28;20452;-59
2023/07/18 14:05:46;;;;;;;5.70;2.47;;;;;;;;;;5110892;28;20108;-60
2023/07/18 14:08:13;;;;;;;4.53;3.30;;;;;;;;;;5110789;28;20478;-59
2023/07/18 14:10:40;;;;;;;5.67;2.63;;;;;;;;;;5111041;28;20108;-59
2023/07/18 14:13:06;;;;;;;5.73;3.30;;;;;;;;;;5115565;28;20027;-59
2023/07/18 14:15:33;;;;;;;6.93;3.50;;;;;;;;;;5114888;28;20543;-59
2023/07/18 14:18:00;;;;;;;11.50;3.50;;;;;;;;;;5115466;28;20518;-59
2023/07/18 14:20:27;;;;;;;5.83;3.30;;;;;;;;;;5115881;28;20024;-59
2023/07/18 14:22:53;;;;;;;13.47;4.97;;;;;;;;;;5114917;28;20016;-59
2023/07/18 14:25:20;;;;;;;5.27;3.33;;;;;;;;;;5110544;28;20077;-59
2023/07/18 14:27:47;;;;;;;9.10;4.40;;;;;;;;;;5110430;28;20059;-59
2023/07/18 14:30:14;;;;;;;7.77;3.53;;;;;;;;;;5110520;28;20024;-59
2023/07/18 14:32:41;;;;;;;9.80;3.10;;;;;;;;;;5109808;28;20374;-59
2023/07/18 14:35:08;;;;;;;9.70;3.60;;;;;;;;;;5115501;28;20043;-60
2023/07/18 14:37:35;;;;;;;12.23;3.20;;;;;;;;;;5115405;28;20086;-59
2023/07/18 14:40:03;;;;;;;14.77;3.33;;;;;;;;;;5115582;28;20055;-59
2023/07/18 14:42:33;;;;;;;9.10;3.17;;;;;;;;;;5115414;28;20053;-59